sensor_id;sensor_type;location;lat;lon;timestamp;temperature;humidity
64468;DHT22;50853;46.836;16.820;2022-07-11T00:02:09;13.50;65.10
64468;DHT22;50853;46.836;16.820;2022-07-11T00:04:36;13.40;65.40
64468;DHT22;50853;46.836;16.820;2022-07-11T00:07:03;13.40;65.40
64468;DHT22;50853;46.836;16.820;2022-07-11T00:09:29;13.40;65.80
64468;DHT22;50853;46.836;16.820;2022-07-11T00:11:55;13.40;66.30
64468;DHT22;50853;46.836;16.820;2022-07-11T00:14:22;13.40;65.70
64468;DHT22;50853;46.836;16.820;2022-07-11T00:16:52;13.30;65.40
64468;DHT22;50853;46.836;16.820;2022-07-11T00:19:21;13.30;65.90
64468;DHT22;50853;46.836;16.820;2022-07-11T00:21:48;13.30;65.60
64468;DHT22;50853;46.836;16.820;2022-07-11T00:24:14;13.30;66.50
64468;DHT22;50853;46.836;16.820;2022-07-11T00:26:43;13.30;66.60
64468;DHT22;50853;46.836;16.820;2022-07-11T00:29:09;13.30;66.70
64468;DHT22;50853;46.836;16.820;2022-07-11T00:31:35;13.20;66.10
64468;DHT22;50853;46.836;16.820;2022-07-11T00:34:01;13.20;67.50
64468;DHT22;50853;46.836;16.820;2022-07-11T00:36:27;13.20;65.90
64468;DHT22;50853;46.836;16.820;2022-07-11T00:38:53;13.20;66.80
64468;DHT22;50853;46.836;16.820;2022-07-11T00:41:19;13.20;65.90
64468;DHT22;50853;46.836;16.820;2022-07-11T00:43:52;13.10;65.10
64468;DHT22;50853;46.836;16.820;2022-07-11T00:46:19;13.10;64.50
64468;DHT22;50853;46.836;16.820;2022-07-11T00:48:45;13.10;65.50
64468;DHT22;50853;46.836;16.820;2022-07-11T00:51:12;13.10;65.60
64468;DHT22;50853;46.836;16.820;2022-07-11T00:53:39;13.10;65.20
64468;DHT22;50853;46.836;16.820;2022-07-11T00:56:07;13.10;66.40
64468;DHT22;50853;46.836;16.820;2022-07-11T00:58:34;13.10;66.50
64468;DHT22;50853;46.836;16.820;2022-07-11T01:01:01;13.00;67.90
64468;DHT22;50853;46.836;16.820;2022-07-11T01:03:27;13.00;67.20
64468;DHT22;50853;46.836;16.820;2022-07-11T01:05:53;13.00;67.80
64468;DHT22;50853;46.836;16.820;2022-07-11T01:08:19;12.90;67.80
64468;DHT22;50853;46.836;16.820;2022-07-11T01:10:46;12.90;67.70
64468;DHT22;50853;46.836;16.820;2022-07-11T01:13:12;12.90;67.90
64468;DHT22;50853;46.836;16.820;2022-07-11T01:15:38;12.80;68.50
64468;DHT22;50853;46.836;16.820;2022-07-11T01:18:04;12.80;69.10
64468;DHT22;50853;46.836;16.820;2022-07-11T01:20:33;12.70;68.20
64468;DHT22;50853;46.836;16.820;2022-07-11T01:23:06;12.70;69.10
64468;DHT22;50853;46.836;16.820;2022-07-11T01:25:32;12.60;69.80
64468;DHT22;50853;46.836;16.820;2022-07-11T01:28:05;12.60;68.70
64468;DHT22;50853;46.836;16.820;2022-07-11T01:30:34;12.60;68.90
64468;DHT22;50853;46.836;16.820;2022-07-11T01:33:00;12.50;67.60
64468;DHT22;50853;46.836;16.820;2022-07-11T01:35:28;12.50;67.70
64468;DHT22;50853;46.836;16.820;2022-07-11T01:37:54;12.50;67.50
64468;DHT22;50853;46.836;16.820;2022-07-11T01:40:20;12.50;67.00
64468;DHT22;50853;46.836;16.820;2022-07-11T01:42:46;12.50;68.10
64468;DHT22;50853;46.836;16.820;2022-07-11T01:45:13;12.40;67.50
64468;DHT22;50853;46.836;16.820;2022-07-11T01:47:39;12.40;67.40
64468;DHT22;50853;46.836;16.820;2022-07-11T01:50:06;12.40;67.90
64468;DHT22;50853;46.836;16.820;2022-07-11T01:52:32;12.40;67.30
64468;DHT22;50853;46.836;16.820;2022-07-11T01:54:58;12.30;67.20
64468;DHT22;50853;46.836;16.820;2022-07-11T01:57:24;12.30;66.70
64468;DHT22;50853;46.836;16.820;2022-07-11T01:59:51;12.20;66.40
64468;DHT22;50853;46.836;16.820;2022-07-11T02:02:17;12.20;67.10
64468;DHT22;50853;46.836;16.820;2022-07-11T02:04:42;12.20;66.10
64468;DHT22;50853;46.836;16.820;2022-07-11T02:07:09;12.20;65.80
64468;DHT22;50853;46.836;16.820;2022-07-11T02:09:37;12.20;65.60
64468;DHT22;50853;46.836;16.820;2022-07-11T02:12:05;12.20;64.70
64468;DHT22;50853;46.836;16.820;2022-07-11T02:14:31;12.10;64.30
64468;DHT22;50853;46.836;16.820;2022-07-11T02:16:57;12.10;64.10
64468;DHT22;50853;46.836;16.820;2022-07-11T02:19:23;12.10;66.10
64468;DHT22;50853;46.836;16.820;2022-07-11T02:21:49;12.10;66.10
64468;DHT22;50853;46.836;16.820;2022-07-11T02:24:15;12.00;66.40
64468;DHT22;50853;46.836;16.820;2022-07-11T02:26:41;12.00;66.10
64468;DHT22;50853;46.836;16.820;2022-07-11T02:29:07;12.00;65.70
64468;DHT22;50853;46.836;16.820;2022-07-11T02:31:33;12.00;64.90
64468;DHT22;50853;46.836;16.820;2022-07-11T02:33:59;11.90;66.10
64468;DHT22;50853;46.836;16.820;2022-07-11T02:36:25;11.90;65.80
64468;DHT22;50853;46.836;16.820;2022-07-11T02:38:51;11.90;65.10
64468;DHT22;50853;46.836;16.820;2022-07-11T02:41:16;11.80;66.20
64468;DHT22;50853;46.836;16.820;2022-07-11T02:43:44;11.80;65.10
64468;DHT22;50853;46.836;16.820;2022-07-11T02:46:09;11.80;65.20
64468;DHT22;50853;46.836;16.820;2022-07-11T02:48:35;11.80;66.80
64468;DHT22;50853;46.836;16.820;2022-07-11T02:51:01;11.80;67.20
64468;DHT22;50853;46.836;16.820;2022-07-11T02:53:27;11.70;67.40
64468;DHT22;50853;46.836;16.820;2022-07-11T02:55:53;11.70;67.60
64468;DHT22;50853;46.836;16.820;2022-07-11T02:58:20;11.70;67.90
64468;DHT22;50853;46.836;16.820;2022-07-11T03:00:46;11.70;67.00
64468;DHT22;50853;46.836;16.820;2022-07-11T03:03:12;11.70;67.60
64468;DHT22;50853;46.836;16.820;2022-07-11T03:05:37;11.70;67.50
64468;DHT22;50853;46.836;16.820;2022-07-11T03:08:03;11.60;66.90
64468;DHT22;50853;46.836;16.820;2022-07-11T03:10:29;11.60;66.70
64468;DHT22;50853;46.836;16.820;2022-07-11T03:12:55;11.60;66.40
64468;DHT22;50853;46.836;16.820;2022-07-11T03:15:21;11.50;65.80
64468;DHT22;50853;46.836;16.820;2022-07-11T03:17:47;11.60;65.50
64468;DHT22;50853;46.836;16.820;2022-07-11T03:20:13;11.60;65.10
64468;DHT22;50853;46.836;16.820;2022-07-11T03:22:39;11.60;64.90
64468;DHT22;50853;46.836;16.820;2022-07-11T03:25:05;11.70;64.10
64468;DHT22;50853;46.836;16.820;2022-07-11T03:27:32;11.80;63.00
64468;DHT22;50853;46.836;16.820;2022-07-11T03:29:58;11.80;63.20
64468;DHT22;50853;46.836;16.820;2022-07-11T03:32:24;11.80;63.00
64468;DHT22;50853;46.836;16.820;2022-07-11T03:34:50;11.90;63.00
64468;DHT22;50853;46.836;16.820;2022-07-11T03:37:34;11.90;62.20
64468;DHT22;50853;46.836;16.820;2022-07-11T03:40:00;11.90;61.70
64468;DHT22;50853;46.836;16.820;2022-07-11T03:42:27;12.00;61.50
64468;DHT22;50853;46.836;16.820;2022-07-11T03:44:53;12.20;61.30
64468;DHT22;50853;46.836;16.820;2022-07-11T03:47:19;12.40;62.00
64468;DHT22;50853;46.836;16.820;2022-07-11T03:49:46;12.60;62.30
64468;DHT22;50853;46.836;16.820;2022-07-11T03:52:13;12.80;62.50
64468;DHT22;50853;46.836;16.820;2022-07-11T03:54:39;12.90;62.50
64468;DHT22;50853;46.836;16.820;2022-07-11T03:57:05;12.90;63.00
64468;DHT22;50853;46.836;16.820;2022-07-11T03:59:31;12.80;62.80
64468;DHT22;50853;46.836;16.820;2022-07-11T04:01:56;12.70;62.80
64468;DHT22;50853;46.836;16.820;2022-07-11T04:04:22;12.70;62.70
64468;DHT22;50853;46.836;16.820;2022-07-11T04:06:48;12.60;63.20
64468;DHT22;50853;46.836;16.820;2022-07-11T04:09:14;12.50;64.30
64468;DHT22;50853;46.836;16.820;2022-07-11T04:11:40;12.70;63.90
64468;DHT22;50853;46.836;16.820;2022-07-11T04:14:06;13.10;62.90
64468;DHT22;50853;46.836;16.820;2022-07-11T04:16:32;13.50;63.60
64468;DHT22;50853;46.836;16.820;2022-07-11T04:18:57;13.60;63.20
64468;DHT22;50853;46.836;16.820;2022-07-11T04:21:23;13.50;65.70
64468;DHT22;50853;46.836;16.820;2022-07-11T04:23:49;13.40;64.50
64468;DHT22;50853;46.836;16.820;2022-07-11T04:26:15;13.40;65.10
64468;DHT22;50853;46.836;16.820;2022-07-11T04:28:41;13.30;64.90
64468;DHT22;50853;46.836;16.820;2022-07-11T04:31:07;13.30;65.20
64468;DHT22;50853;46.836;16.820;2022-07-11T04:33:33;13.40;65.80
64468;DHT22;50853;46.836;16.820;2022-07-11T04:35:58;13.40;65.80
64468;DHT22;50853;46.836;16.820;2022-07-11T04:38:24;13.90;66.80
64468;DHT22;50853;46.836;16.820;2022-07-11T04:40:50;14.50;67.40
64468;DHT22;50853;46.836;16.820;2022-07-11T04:43:17;14.60;66.00
64468;DHT22;50853;46.836;16.820;2022-07-11T04:45:43;14.90;65.80
64468;DHT22;50853;46.836;16.820;2022-07-11T04:48:08;15.20;64.00
64468;DHT22;50853;46.836;16.820;2022-07-11T04:50:34;15.70;63.90
64468;DHT22;50853;46.836;16.820;2022-07-11T04:53:00;16.10;62.20
64468;DHT22;50853;46.836;16.820;2022-07-11T04:55:26;16.60;62.00
64468;DHT22;50853;46.836;16.820;2022-07-11T04:57:52;16.80;61.50
64468;DHT22;50853;46.836;16.820;2022-07-11T05:00:18;16.60;59.30
64468;DHT22;50853;46.836;16.820;2022-07-11T05:02:45;16.30;61.40
64468;DHT22;50853;46.836;16.820;2022-07-11T05:05:11;16.10;61.70
64468;DHT22;50853;46.836;16.820;2022-07-11T05:07:37;16.00;61.70
64468;DHT22;50853;46.836;16.820;2022-07-11T05:10:04;15.80;61.60
64468;DHT22;50853;46.836;16.820;2022-07-11T05:12:30;15.70;61.40
64468;DHT22;50853;46.836;16.820;2022-07-11T05:14:56;15.60;62.30
64468;DHT22;50853;46.836;16.820;2022-07-11T05:17:25;15.50;62.80
64468;DHT22;50853;46.836;16.820;2022-07-11T05:19:52;15.50;62.80
64468;DHT22;50853;46.836;16.820;2022-07-11T05:22:17;15.30;61.30
64468;DHT22;50853;46.836;16.820;2022-07-11T05:24:43;15.40;63.50
64468;DHT22;50853;46.836;16.820;2022-07-11T05:27:09;15.30;62.30
64468;DHT22;50853;46.836;16.820;2022-07-11T05:29:35;15.30;62.70
64468;DHT22;50853;46.836;16.820;2022-07-11T05:32:01;15.20;64.00
64468;DHT22;50853;46.836;16.820;2022-07-11T05:34:26;15.20;63.70
64468;DHT22;50853;46.836;16.820;2022-07-11T05:36:52;15.20;65.70
64468;DHT22;50853;46.836;16.820;2022-07-11T05:39:21;15.20;64.90
64468;DHT22;50853;46.836;16.820;2022-07-11T05:41:48;15.30;66.10
64468;DHT22;50853;46.836;16.820;2022-07-11T05:44:17;15.30;65.30
64468;DHT22;50853;46.836;16.820;2022-07-11T05:46:44;15.20;61.20
64468;DHT22;50853;46.836;16.820;2022-07-11T05:49:10;15.20;62.50
64468;DHT22;50853;46.836;16.820;2022-07-11T05:51:36;15.20;62.70
64468;DHT22;50853;46.836;16.820;2022-07-11T05:54:03;15.10;62.00
64468;DHT22;50853;46.836;16.820;2022-07-11T05:56:29;15.10;62.70
64468;DHT22;50853;46.836;16.820;2022-07-11T05:58:56;15.10;64.30
64468;DHT22;50853;46.836;16.820;2022-07-11T06:01:22;15.10;64.40
64468;DHT22;50853;46.836;16.820;2022-07-11T06:03:49;15.00;64.60
64468;DHT22;50853;46.836;16.820;2022-07-11T06:06:14;15.00;65.60
64468;DHT22;50853;46.836;16.820;2022-07-11T06:08:42;15.00;63.50
64468;DHT22;50853;46.836;16.820;2022-07-11T06:23:15;15.40;64.40
64468;DHT22;50853;46.836;16.820;2022-07-11T06:25:41;15.50;65.20
64468;DHT22;50853;46.836;16.820;2022-07-11T06:28:07;16.10;63.50
64468;DHT22;50853;46.836;16.820;2022-07-11T06:30:33;17.10;62.10
64468;DHT22;50853;46.836;16.820;2022-07-11T06:33:00;17.90;60.70
64468;DHT22;50853;46.836;16.820;2022-07-11T06:35:26;18.30;56.80
64468;DHT22;50853;46.836;16.820;2022-07-11T06:37:52;18.70;59.60
64468;DHT22;50853;46.836;16.820;2022-07-11T06:40:17;18.90;54.30
64468;DHT22;50853;46.836;16.820;2022-07-11T06:42:44;19.40;55.80
64468;DHT22;50853;46.836;16.820;2022-07-11T06:45:10;19.70;53.40
64468;DHT22;50853;46.836;16.820;2022-07-11T06:47:36;19.80;50.80
64468;DHT22;50853;46.836;16.820;2022-07-11T06:50:02;19.90;49.20
64468;DHT22;50853;46.836;16.820;2022-07-11T06:52:28;20.40;56.00
64468;DHT22;50853;46.836;16.820;2022-07-11T06:54:54;20.80;57.90
64468;DHT22;50853;46.836;16.820;2022-07-11T06:57:20;21.00;54.30
64468;DHT22;50853;46.836;16.820;2022-07-11T06:59:46;21.20;50.50
64468;DHT22;50853;46.836;16.820;2022-07-11T07:02:12;21.50;53.60
64468;DHT22;50853;46.836;16.820;2022-07-11T07:04:38;21.80;54.20
64468;DHT22;50853;46.836;16.820;2022-07-11T07:07:04;22.10;52.70
64468;DHT22;50853;46.836;16.820;2022-07-11T07:09:30;22.40;52.10
64468;DHT22;50853;46.836;16.820;2022-07-11T07:11:55;22.50;50.40
64468;DHT22;50853;46.836;16.820;2022-07-11T07:14:22;22.80;50.00
64468;DHT22;50853;46.836;16.820;2022-07-11T07:16:47;22.90;52.30
64468;DHT22;50853;46.836;16.820;2022-07-11T07:19:14;23.20;51.10
64468;DHT22;50853;46.836;16.820;2022-07-11T07:21:40;23.50;50.60
64468;DHT22;50853;46.836;16.820;2022-07-11T07:24:05;23.80;52.10
64468;DHT22;50853;46.836;16.820;2022-07-11T07:26:32;23.80;47.60
64468;DHT22;50853;46.836;16.820;2022-07-11T07:28:58;24.10;50.70
64468;DHT22;50853;46.836;16.820;2022-07-11T07:31:24;24.30;48.50
64468;DHT22;50853;46.836;16.820;2022-07-11T07:33:51;24.10;46.50
64468;DHT22;50853;46.836;16.820;2022-07-11T07:36:17;24.20;48.20
64468;DHT22;50853;46.836;16.820;2022-07-11T07:38:44;24.60;46.90
64468;DHT22;50853;46.836;16.820;2022-07-11T07:41:13;25.00;47.00
64468;DHT22;50853;46.836;16.820;2022-07-11T07:43:39;25.30;47.50
64468;DHT22;50853;46.836;16.820;2022-07-11T07:46:07;25.10;39.60
64468;DHT22;50853;46.836;16.820;2022-07-11T07:48:37;25.00;44.10
64468;DHT22;50853;46.836;16.820;2022-07-11T07:51:07;25.10;40.20
64468;DHT22;50853;46.836;16.820;2022-07-11T07:53:33;25.40;46.10
64468;DHT22;50853;46.836;16.820;2022-07-11T07:55:58;25.40;43.20
64468;DHT22;50853;46.836;16.820;2022-07-11T07:58:24;25.50;42.20
64468;DHT22;50853;46.836;16.820;2022-07-11T08:00:50;25.40;44.30
64468;DHT22;50853;46.836;16.820;2022-07-11T08:03:34;25.60;43.60
64468;DHT22;50853;46.836;16.820;2022-07-11T08:06:00;26.10;44.40
64468;DHT22;50853;46.836;16.820;2022-07-11T08:08:25;26.30;42.00
64468;DHT22;50853;46.836;16.820;2022-07-11T08:10:51;26.70;42.00
64468;DHT22;50853;46.836;16.820;2022-07-11T08:13:18;26.70;41.40
64468;DHT22;50853;46.836;16.820;2022-07-11T08:15:45;26.60;41.90
64468;DHT22;50853;46.836;16.820;2022-07-11T08:18:11;26.90;41.80
64468;DHT22;50853;46.836;16.820;2022-07-11T08:20:37;26.80;39.80
64468;DHT22;50853;46.836;16.820;2022-07-11T08:23:03;26.80;38.30
64468;DHT22;50853;46.836;16.820;2022-07-11T08:25:32;26.90;39.40
64468;DHT22;50853;46.836;16.820;2022-07-11T08:27:58;27.50;41.70
64468;DHT22;50853;46.836;16.820;2022-07-11T08:30:24;27.80;40.50
64468;DHT22;50853;46.836;16.820;2022-07-11T08:32:51;27.60;36.90
64468;DHT22;50853;46.836;16.820;2022-07-11T08:35:17;27.60;41.20
64468;DHT22;50853;46.836;16.820;2022-07-11T08:37:43;27.90;43.50
64468;DHT22;50853;46.836;16.820;2022-07-11T08:40:10;27.80;41.00
64468;DHT22;50853;46.836;16.820;2022-07-11T08:42:38;27.70;41.40
64468;DHT22;50853;46.836;16.820;2022-07-11T08:45:05;27.60;41.10
64468;DHT22;50853;46.836;16.820;2022-07-11T08:47:32;28.10;43.20
64468;DHT22;50853;46.836;16.820;2022-07-11T08:49:58;28.40;40.30
64468;DHT22;50853;46.836;16.820;2022-07-11T08:52:24;28.70;41.10
64468;DHT22;50853;46.836;16.820;2022-07-11T08:54:51;28.80;40.90
64468;DHT22;50853;46.836;16.820;2022-07-11T08:57:18;29.00;40.10
64468;DHT22;50853;46.836;16.820;2022-07-11T08:59:44;28.50;36.30
64468;DHT22;50853;46.836;16.820;2022-07-11T09:02:12;28.40;38.60
64468;DHT22;50853;46.836;16.820;2022-07-11T09:04:38;28.90;40.90
64468;DHT22;50853;46.836;16.820;2022-07-11T09:07:04;28.50;39.50
64468;DHT22;50853;46.836;16.820;2022-07-11T09:09:30;28.40;42.60
64468;DHT22;50853;46.836;16.820;2022-07-11T09:11:57;28.10;39.90
64468;DHT22;50853;46.836;16.820;2022-07-11T09:14:27;27.90;42.30
64468;DHT22;50853;46.836;16.820;2022-07-11T09:16:55;27.80;42.00
64468;DHT22;50853;46.836;16.820;2022-07-11T09:19:25;27.70;40.80
64468;DHT22;50853;46.836;16.820;2022-07-11T09:22:09;27.40;40.20
64468;DHT22;50853;46.836;16.820;2022-07-11T09:24:59;27.40;38.40
64468;DHT22;50853;46.836;16.820;2022-07-11T09:28:02;27.40;36.80
64468;DHT22;50853;46.836;16.820;2022-07-11T09:30:34;27.40;41.60
64468;DHT22;50853;46.836;16.820;2022-07-11T09:33:08;26.90;42.30
64468;DHT22;50853;46.836;16.820;2022-07-11T09:35:38;26.80;43.50
64468;DHT22;50853;46.836;16.820;2022-07-11T09:38:07;26.80;41.20
64468;DHT22;50853;46.836;16.820;2022-07-11T09:40:34;26.40;38.60
64468;DHT22;50853;46.836;16.820;2022-07-11T09:43:01;26.60;41.50
64468;DHT22;50853;46.836;16.820;2022-07-11T09:45:29;26.30;42.10
64468;DHT22;50853;46.836;16.820;2022-07-11T09:47:57;26.10;41.60
64468;DHT22;50853;46.836;16.820;2022-07-11T09:50:28;26.10;41.50
64468;DHT22;50853;46.836;16.820;2022-07-11T09:53:13;26.00;42.50
64468;DHT22;50853;46.836;16.820;2022-07-11T09:55:44;26.50;43.80
64468;DHT22;50853;46.836;16.820;2022-07-11T09:58:14;27.00;42.70
64468;DHT22;50853;46.836;16.820;2022-07-11T10:00:41;27.00;41.30
64468;DHT22;50853;46.836;16.820;2022-07-11T10:03:09;26.70;40.60
64468;DHT22;50853;46.836;16.820;2022-07-11T10:05:37;26.80;43.60
64468;DHT22;50853;46.836;16.820;2022-07-11T10:08:03;27.10;43.70
64468;DHT22;50853;46.836;16.820;2022-07-11T10:10:29;26.90;42.20
64468;DHT22;50853;46.836;16.820;2022-07-11T10:12:55;26.80;39.80
64468;DHT22;50853;46.836;16.820;2022-07-11T10:15:35;26.40;39.50
64468;DHT22;50853;46.836;16.820;2022-07-11T10:21:11;26.50;36.30
64468;DHT22;50853;46.836;16.820;2022-07-11T10:29:10;26.50;34.50
64468;DHT22;50853;46.836;16.820;2022-07-11T10:31:39;26.60;39.00
64468;DHT22;50853;46.836;16.820;2022-07-11T10:34:05;26.40;40.70
64468;DHT22;50853;46.836;16.820;2022-07-11T10:36:40;26.80;41.40
64468;DHT22;50853;46.836;16.820;2022-07-11T10:39:23;27.30;43.10
64468;DHT22;50853;46.836;16.820;2022-07-11T10:41:56;27.00;41.80
64468;DHT22;50853;46.836;16.820;2022-07-11T10:44:24;27.30;44.30
64468;DHT22;50853;46.836;16.820;2022-07-11T10:46:51;27.70;44.20
64468;DHT22;50853;46.836;16.820;2022-07-11T10:49:32;27.80;42.60
64468;DHT22;50853;46.836;16.820;2022-07-11T10:52:08;28.30;42.60
64468;DHT22;50853;46.836;16.820;2022-07-11T10:57:31;28.70;39.50
64468;DHT22;50853;46.836;16.820;2022-07-11T11:00:00;28.80;40.30
64468;DHT22;50853;46.836;16.820;2022-07-11T11:02:27;29.10;38.80
64468;DHT22;50853;46.836;16.820;2022-07-11T11:04:58;29.20;38.20
64468;DHT22;50853;46.836;16.820;2022-07-11T11:07:43;29.30;37.20
64468;DHT22;50853;46.836;16.820;2022-07-11T11:23:38;28.90;38.10
64468;DHT22;50853;46.836;16.820;2022-07-11T11:26:20;29.10;40.20
64468;DHT22;50853;46.836;16.820;2022-07-11T11:29:00;29.00;36.70
64468;DHT22;50853;46.836;16.820;2022-07-11T11:31:27;28.30;38.90
64468;DHT22;50853;46.836;16.820;2022-07-11T11:33:53;28.30;42.30
64468;DHT22;50853;46.836;16.820;2022-07-11T11:36:21;28.20;38.80
64468;DHT22;50853;46.836;16.820;2022-07-11T11:38:47;28.10;39.60
64468;DHT22;50853;46.836;16.820;2022-07-11T11:41:23;28.60;39.90
64468;DHT22;50853;46.836;16.820;2022-07-11T11:43:52;28.20;35.40
64468;DHT22;50853;46.836;16.820;2022-07-11T11:46:19;28.30;36.70
64468;DHT22;50853;46.836;16.820;2022-07-11T11:48:45;28.30;36.80
64468;DHT22;50853;46.836;16.820;2022-07-11T11:51:14;28.20;37.30
64468;DHT22;50853;46.836;16.820;2022-07-11T11:53:43;28.10;37.80
64468;DHT22;50853;46.836;16.820;2022-07-11T11:56:34;28.20;37.40
64468;DHT22;50853;46.836;16.820;2022-07-11T11:59:02;28.20;40.20
64468;DHT22;50853;46.836;16.820;2022-07-11T12:01:34;28.10;38.50
64468;DHT22;50853;46.836;16.820;2022-07-11T12:04:02;28.00;39.80
64468;DHT22;50853;46.836;16.820;2022-07-11T12:06:33;27.60;35.10
64468;DHT22;50853;46.836;16.820;2022-07-11T12:09:13;27.70;37.00
64468;DHT22;50853;46.836;16.820;2022-07-11T12:11:41;27.80;38.50
64468;DHT22;50853;46.836;16.820;2022-07-11T12:14:09;27.80;40.00
64468;DHT22;50853;46.836;16.820;2022-07-11T12:16:43;27.60;36.50
64468;DHT22;50853;46.836;16.820;2022-07-11T12:19:16;27.40;38.10
64468;DHT22;50853;46.836;16.820;2022-07-11T12:21:48;27.50;40.80
64468;DHT22;50853;46.836;16.820;2022-07-11T12:24:33;27.60;40.50
64468;DHT22;50853;46.836;16.820;2022-07-11T12:26:59;27.90;39.30
64468;DHT22;50853;46.836;16.820;2022-07-11T12:29:26;27.90;38.20
64468;DHT22;50853;46.836;16.820;2022-07-11T12:31:57;27.70;33.70
64468;DHT22;50853;46.836;16.820;2022-07-11T12:34:46;27.90;40.80
64468;DHT22;50853;46.836;16.820;2022-07-11T12:37:16;28.00;42.10
64468;DHT22;50853;46.836;16.820;2022-07-11T12:39:51;28.00;36.80
64468;DHT22;50853;46.836;16.820;2022-07-11T12:42:33;28.20;39.90
64468;DHT22;50853;46.836;16.820;2022-07-11T12:45:09;28.40;39.80
64468;DHT22;50853;46.836;16.820;2022-07-11T12:47:40;28.40;40.70
64468;DHT22;50853;46.836;16.820;2022-07-11T12:52:46;28.30;40.50
64468;DHT22;50853;46.836;16.820;2022-07-11T12:55:30;28.20;37.70
64468;DHT22;50853;46.836;16.820;2022-07-11T12:58:13;28.20;38.30
64468;DHT22;50853;46.836;16.820;2022-07-11T13:01:05;28.50;37.00
64468;DHT22;50853;46.836;16.820;2022-07-11T13:03:35;28.50;35.50
64468;DHT22;50853;46.836;16.820;2022-07-11T13:06:04;28.70;33.70
64468;DHT22;50853;46.836;16.820;2022-07-11T13:08:37;28.60;37.70
64468;DHT22;50853;46.836;16.820;2022-07-11T13:11:18;28.40;35.00
64468;DHT22;50853;46.836;16.820;2022-07-11T13:13:46;28.20;35.20
64468;DHT22;50853;46.836;16.820;2022-07-11T13:16:13;28.10;36.70
64468;DHT22;50853;46.836;16.820;2022-07-11T13:18:40;28.20;31.10
64468;DHT22;50853;46.836;16.820;2022-07-11T13:21:06;28.40;34.20
64468;DHT22;50853;46.836;16.820;2022-07-11T13:23:36;28.60;35.90
64468;DHT22;50853;46.836;16.820;2022-07-11T13:26:04;28.60;39.70
64468;DHT22;50853;46.836;16.820;2022-07-11T13:28:30;28.80;36.60
64468;DHT22;50853;46.836;16.820;2022-07-11T13:30:55;28.80;36.90
64468;DHT22;50853;46.836;16.820;2022-07-11T13:33:22;28.70;36.30
64468;DHT22;50853;46.836;16.820;2022-07-11T13:35:49;28.70;35.90
64468;DHT22;50853;46.836;16.820;2022-07-11T13:38:16;28.60;34.70
64468;DHT22;50853;46.836;16.820;2022-07-11T13:40:42;28.80;37.30
64468;DHT22;50853;46.836;16.820;2022-07-11T13:43:09;28.80;36.80
64468;DHT22;50853;46.836;16.820;2022-07-11T13:45:35;28.40;38.00
64468;DHT22;50853;46.836;16.820;2022-07-11T13:48:01;28.70;39.20
64468;DHT22;50853;46.836;16.820;2022-07-11T13:50:27;28.50;36.10
64468;DHT22;50853;46.836;16.820;2022-07-11T13:52:53;28.80;35.80
64468;DHT22;50853;46.836;16.820;2022-07-11T13:55:21;28.60;37.00
64468;DHT22;50853;46.836;16.820;2022-07-11T13:58:00;28.50;35.30
64468;DHT22;50853;46.836;16.820;2022-07-11T14:00:27;28.30;36.00
64468;DHT22;50853;46.836;16.820;2022-07-11T14:02:54;28.50;36.20
64468;DHT22;50853;46.836;16.820;2022-07-11T14:05:20;28.20;35.50
64468;DHT22;50853;46.836;16.820;2022-07-11T14:07:47;28.10;35.40
64468;DHT22;50853;46.836;16.820;2022-07-11T14:10:14;28.10;33.30
64468;DHT22;50853;46.836;16.820;2022-07-11T14:12:40;28.20;36.90
64468;DHT22;50853;46.836;16.820;2022-07-11T14:15:06;28.10;36.30
64468;DHT22;50853;46.836;16.820;2022-07-11T14:17:37;27.80;35.50
64468;DHT22;50853;46.836;16.820;2022-07-11T14:20:03;27.70;33.40
64468;DHT22;50853;46.836;16.820;2022-07-11T14:22:29;27.40;34.10
64468;DHT22;50853;46.836;16.820;2022-07-11T14:24:55;27.40;36.10
64468;DHT22;50853;46.836;16.820;2022-07-11T14:27:22;27.20;32.60
64468;DHT22;50853;46.836;16.820;2022-07-11T14:29:48;27.30;35.30
64468;DHT22;50853;46.836;16.820;2022-07-11T14:32:14;27.10;35.40
64468;DHT22;50853;46.836;16.820;2022-07-11T14:34:42;27.00;35.80
64468;DHT22;50853;46.836;16.820;2022-07-11T14:37:08;26.80;34.90
64468;DHT22;50853;46.836;16.820;2022-07-11T14:39:34;26.60;37.60
64468;DHT22;50853;46.836;16.820;2022-07-11T14:42:00;26.40;36.80
64468;DHT22;50853;46.836;16.820;2022-07-11T14:44:27;26.50;39.20
64468;DHT22;50853;46.836;16.820;2022-07-11T14:46:53;26.50;39.20
64468;DHT22;50853;46.836;16.820;2022-07-11T14:49:19;26.40;39.50
64468;DHT22;50853;46.836;16.820;2022-07-11T14:51:45;26.40;40.40
64468;DHT22;50853;46.836;16.820;2022-07-11T14:54:11;26.20;40.20
64468;DHT22;50853;46.836;16.820;2022-07-11T14:56:39;25.90;37.30
64468;DHT22;50853;46.836;16.820;2022-07-11T14:59:05;25.70;41.30
64468;DHT22;50853;46.836;16.820;2022-07-11T15:01:31;25.60;40.00
64468;DHT22;50853;46.836;16.820;2022-07-11T15:03:57;25.30;38.30
64468;DHT22;50853;46.836;16.820;2022-07-11T15:06:23;25.40;40.70
64468;DHT22;50853;46.836;16.820;2022-07-11T15:09:09;25.50;40.00
64468;DHT22;50853;46.836;16.820;2022-07-11T15:11:53;25.30;40.60
64468;DHT22;50853;46.836;16.820;2022-07-11T15:14:38;25.20;41.80
64468;DHT22;50853;46.836;16.820;2022-07-11T15:17:03;25.30;40.60
64468;DHT22;50853;46.836;16.820;2022-07-11T15:19:29;25.10;39.40
64468;DHT22;50853;46.836;16.820;2022-07-11T15:21:55;25.10;40.90
64468;DHT22;50853;46.836;16.820;2022-07-11T15:24:21;25.00;41.50
64468;DHT22;50853;46.836;16.820;2022-07-11T15:26:47;25.00;41.60
64468;DHT22;50853;46.836;16.820;2022-07-11T15:29:13;25.00;41.50
64468;DHT22;50853;46.836;16.820;2022-07-11T15:31:38;24.90;41.20
64468;DHT22;50853;46.836;16.820;2022-07-11T15:34:04;24.70;38.20
64468;DHT22;50853;46.836;16.820;2022-07-11T15:36:30;24.60;40.50
64468;DHT22;50853;46.836;16.820;2022-07-11T15:38:56;24.50;41.10
64468;DHT22;50853;46.836;16.820;2022-07-11T15:41:22;24.50;41.80
64468;DHT22;50853;46.836;16.820;2022-07-11T15:43:48;24.40;43.70
64468;DHT22;50853;46.836;16.820;2022-07-11T15:46:14;24.40;43.50
64468;DHT22;50853;46.836;16.820;2022-07-11T15:48:40;24.30;42.90
64468;DHT22;50853;46.836;16.820;2022-07-11T15:51:07;24.30;42.40
64468;DHT22;50853;46.836;16.820;2022-07-11T15:53:33;24.30;42.60
64468;DHT22;50853;46.836;16.820;2022-07-11T15:56:04;24.20;44.00
64468;DHT22;50853;46.836;16.820;2022-07-11T15:58:30;24.00;44.80
64468;DHT22;50853;46.836;16.820;2022-07-11T16:00:59;24.00;42.60